Time;durP1;ratioP1;P1;durP2;ratioP2;P2;SDS_P1;SDS_P2;PMS_P1;PMS_P2;Temp;Humidity;BMP_temperature;BMP_pressure;BME280_temperature;BME280_humidity;BME280_pressure;Samples;Min_cycle;Max_cycle;Signal;HPM_P1;HPM_P2
2023/04/26 00:01:56;;;;;;;120.40;7.88;;;;;;;;;;4985454;28;20787;-59
2023/04/26 00:04:21;;;;;;;113.03;7.32;;;;;;;;;;4983948;28;20018;-59
2023/04/26 00:06:48;;;;;;;117.07;7.53;;;;;;;;;;4985422;28;20042;-59
2023/04/26 00:09:13;;;;;;;140.27;8.40;;;;;;;;;;4984553;28;20129;-62
2023/04/26 00:11:38;;;;;;;98.78;6.95;;;;;;;;;;4985605;28;20041;-59
2023/04/26 00:14:03;;;;;;;111.53;7.23;;;;;;;;;;4985195;28;20026;-59
2023/04/26 00:16:29;;;;;;;114.85;7.68;;;;;;;;;;4984313;28;20457;-59
2023/04/26 00:18:55;;;;;;;103.20;7.18;;;;;;;;;;4984790;28;20027;-59
2023/04/26 00:21:20;;;;;;;142.98;8.80;;;;;;;;;;4982898;28;20630;-59
2023/04/26 00:23:45;;;;;;;181.43;10.18;;;;;;;;;;4983860;28;20133;-58
2023/04/26 00:26:11;;;;;;;111.93;7.13;;;;;;;;;;4984790;28;20041;-58
2023/04/26 00:28:36;;;;;;;114.30;7.53;;;;;;;;;;4985172;28;20513;-56
2023/04/26 00:31:02;;;;;;;111.38;7.60;;;;;;;;;;4985422;28;20749;-57
2023/04/26 00:33:27;;;;;;;106.88;7.15;;;;;;;;;;4984709;28;20513;-57
2023/04/26 00:35:52;;;;;;;115.15;8.13;;;;;;;;;;4982666;28;20035;-61
2023/04/26 00:38:17;;;;;;;118.90;8.05;;;;;;;;;;4983858;28;20030;-60
2023/04/26 00:40:43;;;;;;;126.30;8.23;;;;;;;;;;4982560;28;20053;-60
2023/04/26 00:43:08;;;;;;;141.02;8.45;;;;;;;;;;4983100;28;20036;-58
2023/04/26 00:45:34;;;;;;;117.10;7.82;;;;;;;;;;4982046;28;20030;-59
2023/04/26 00:48:00;;;;;;;132.20;8.20;;;;;;;;;;4985840;28;20026;-60
2023/04/26 00:50:25;;;;;;;108.90;6.90;;;;;;;;;;4983301;28;20034;-57
2023/04/26 00:52:51;;;;;;;122.40;8.43;;;;;;;;;;4983672;28;20428;-59
2023/04/26 00:55:17;;;;;;;125.93;7.97;;;;;;;;;;4979497;28;20767;-59
2023/04/26 00:57:43;;;;;;;102.72;7.88;;;;;;;;;;4984144;28;20033;-61
2023/04/26 01:00:09;;;;;;;142.05;8.50;;;;;;;;;;4980496;28;20372;-60
2023/04/26 01:02:34;;;;;;;105.80;8.27;;;;;;;;;;4984278;28;20884;-58
2023/04/26 01:04:59;;;;;;;107.32;7.53;;;;;;;;;;4982783;28;20071;-59
2023/04/26 01:07:25;;;;;;;131.25;8.27;;;;;;;;;;4983384;28;20102;-59
2023/04/26 01:09:51;;;;;;;89.60;7.15;;;;;;;;;;4985037;28;20014;-61
2023/04/26 01:12:17;;;;;;;121.53;7.63;;;;;;;;;;4983436;28;20090;-60
2023/04/26 01:14:42;;;;;;;119.53;8.10;;;;;;;;;;4983854;28;20807;-58
2023/04/26 01:17:08;;;;;;;117.22;8.35;;;;;;;;;;4982610;28;20033;-58
2023/04/26 01:19:36;;;;;;;142.63;8.43;;;;;;;;;;4983533;28;20078;-60
2023/04/26 01:22:01;;;;;;;112.78;8.02;;;;;;;;;;4984569;28;20495;-57
2023/04/26 01:24:27;;;;;;;101.15;7.40;;;;;;;;;;4984516;28;20632;-57
2023/04/26 01:26:52;;;;;;;123.80;7.85;;;;;;;;;;4983560;28;20038;-55
2023/04/26 01:29:18;;;;;;;111.25;8.20;;;;;;;;;;4982831;28;20110;-57
2023/04/26 01:31:44;;;;;;;133.98;9.18;;;;;;;;;;4985618;28;20042;-57
2023/04/26 01:34:10;;;;;;;122.93;8.23;;;;;;;;;;4983197;28;20438;-57
2023/04/26 01:36:35;;;;;;;124.80;8.77;;;;;;;;;;4983339;28;20113;-58
2023/04/26 01:39:00;;;;;;;163.48;10.40;;;;;;;;;;4984489;28;20114;-56
2023/04/26 01:41:26;;;;;;;125.88;8.18;;;;;;;;;;4982135;28;20514;-56
2023/04/26 01:43:51;;;;;;;157.18;9.95;;;;;;;;;;4981906;28;20019;-58
2023/04/26 01:46:16;;;;;;;135.50;9.10;;;;;;;;;;4981475;28;20030;-56
2023/04/26 01:48:41;;;;;;;111.43;8.03;;;;;;;;;;4982772;28;20143;-57
2023/04/26 01:51:06;;;;;;;157.52;9.32;;;;;;;;;;4981843;28;20354;-56
2023/04/26 01:53:32;;;;;;;142.85;9.30;;;;;;;;;;4983461;28;20079;-56
2023/04/26 01:56:04;;;;;;;121.93;8.48;;;;;;;;;;4981418;28;20094;-59
2023/04/26 01:58:29;;;;;;;;;;;;;;;;;;4984109;28;20113;-58
2023/04/26 02:00:56;;;;;;;109.35;8.85;;;;;;;;;;4983590;28;20005;-57
2023/04/26 02:03:21;;;;;;;131.93;9.48;;;;;;;;;;4981826;28;20030;-56
2023/04/26 02:05:46;;;;;;;131.00;9.15;;;;;;;;;;4982584;28;20065;-55
2023/04/26 02:08:12;;;;;;;115.75;8.25;;;;;;;;;;4983772;28;20081;-59
2023/04/26 02:10:37;;;;;;;123.00;8.73;;;;;;;;;;4981256;28;20480;-57
2023/04/26 02:13:02;;;;;;;122.90;8.43;;;;;;;;;;4981785;28;20462;-59
2023/04/26 02:15:28;;;;;;;135.20;9.63;;;;;;;;;;4983558;28;20121;-59
2023/04/26 02:17:54;;;;;;;109.38;8.13;;;;;;;;;;4982948;28;20758;-58
2023/04/26 02:20:19;;;;;;;116.65;8.45;;;;;;;;;;4981962;28;20117;-57
2023/04/26 02:22:44;;;;;;;133.02;9.23;;;;;;;;;;4982211;28;20043;-57
2023/04/26 02:25:10;;;;;;;128.38;8.77;;;;;;;;;;4982740;28;20022;-59
2023/04/26 02:27:36;;;;;;;124.53;8.60;;;;;;;;;;4983047;28;20076;-58
2023/04/26 02:30:01;;;;;;;147.98;9.27;;;;;;;;;;4981495;28;20037;-59
2023/04/26 02:32:26;;;;;;;125.47;8.18;;;;;;;;;;4983346;28;20875;-58
2023/04/26 02:34:51;;;;;;;118.95;8.90;;;;;;;;;;4982193;28;20018;-60
2023/04/26 02:37:17;;;;;;;128.02;8.88;;;;;;;;;;4981517;28;20038;-59
2023/04/26 02:39:42;;;;;;;138.23;9.00;;;;;;;;;;4981583;28;20112;-59
2023/04/26 02:42:09;;;;;;;129.25;8.40;;;;;;;;;;4981394;28;20038;-57
2023/04/26 02:44:34;;;;;;;143.40;9.45;;;;;;;;;;4981074;28;20606;-56
2023/04/26 02:46:59;;;;;;;118.45;8.70;;;;;;;;;;4981604;28;20039;-57
2023/04/26 02:49:24;;;;;;;142.93;9.10;;;;;;;;;;4982260;28;20050;-57
2023/04/26 02:51:50;;;;;;;115.90;8.32;;;;;;;;;;4980704;28;20317;-58
2023/04/26 02:54:16;;;;;;;113.93;7.03;;;;;;;;;;4980429;28;20109;-57
2023/04/26 02:56:41;;;;;;;147.32;8.75;;;;;;;;;;4981241;28;20087;-57
2023/04/26 02:59:06;;;;;;;126.88;7.90;;;;;;;;;;4984786;28;20049;-58
2023/04/26 03:01:31;;;;;;;133.98;8.95;;;;;;;;;;4984909;28;20030;-57
2023/04/26 03:03:57;;;;;;;149.15;9.38;;;;;;;;;;4985570;28;20076;-58
2023/04/26 03:06:22;;;;;;;120.85;7.72;;;;;;;;;;4984594;28;20030;-59
2023/04/26 03:08:47;;;;;;;147.20;9.50;;;;;;;;;;4984804;28;20661;-58
2023/04/26 03:11:12;;;;;;;116.18;8.05;;;;;;;;;;4986368;28;20585;-56
2023/04/26 03:13:37;;;;;;;144.65;9.32;;;;;;;;;;4984734;28;20117;-56
2023/04/26 03:16:03;;;;;;;156.57;10.77;;;;;;;;;;4983933;28;20072;-60
2023/04/26 03:18:28;;;;;;;123.28;8.90;;;;;;;;;;4985248;28;20330;-57
2023/04/26 03:20:53;;;;;;;115.38;8.75;;;;;;;;;;4985661;28;20083;-57
2023/04/26 03:23:20;;;;;;;149.88;9.15;;;;;;;;;;4984531;28;20098;-57
2023/04/26 03:25:46;;;;;;;127.22;9.05;;;;;;;;;;4983532;28;20947;-56
2023/04/26 03:28:11;;;;;;;137.10;9.43;;;;;;;;;;4985809;28;20026;-56
2023/04/26 03:30:36;;;;;;;130.43;7.78;;;;;;;;;;4983857;28;20107;-56
2023/04/26 03:33:02;;;;;;;109.95;8.15;;;;;;;;;;4985766;28;20030;-57
2023/04/26 03:35:27;;;;;;;125.32;8.15;;;;;;;;;;4983330;28;20164;-59
2023/04/26 03:37:52;;;;;;;130.55;9.57;;;;;;;;;;4984156;28;20097;-57
2023/04/26 03:40:18;;;;;;;137.15;9.60;;;;;;;;;;4984409;28;20078;-56
2023/04/26 03:42:43;;;;;;;131.23;9.55;;;;;;;;;;4983442;28;20014;-56
2023/04/26 03:45:08;;;;;;;117.00;9.00;;;;;;;;;;4984154;28;20667;-58
2023/04/26 03:47:34;;;;;;;167.18;10.65;;;;;;;;;;4984379;28;20023;-58
2023/04/26 03:50:00;;;;;;;113.72;8.75;;;;;;;;;;4985770;28;20041;-60
2023/04/26 03:52:25;;;;;;;174.85;10.98;;;;;;;;;;4984900;28;20091;-60
2023/04/26 03:54:51;;;;;;;128.07;8.65;;;;;;;;;;4984752;28;20026;-57
2023/04/26 03:57:16;;;;;;;146.68;9.80;;;;;;;;;;4984928;28;20415;-57
2023/04/26 03:59:41;;;;;;;124.47;7.95;;;;;;;;;;4984173;28;20013;-60
2023/04/26 04:02:06;;;;;;;138.30;8.38;;;;;;;;;;4982916;28;20591;-58
2023/04/26 04:04:32;;;;;;;108.35;6.72;;;;;;;;;;4983577;28;20022;-57
2023/04/26 04:06:57;;;;;;;133.13;7.93;;;;;;;;;;4985070;28;20523;-57
2023/04/26 04:09:23;;;;;;;112.45;7.90;;;;;;;;;;4983919;28;20088;-59
2023/04/26 04:11:48;;;;;;;106.32;6.97;;;;;;;;;;4986791;28;20049;-59
2023/04/26 04:14:13;;;;;;;157.43;9.93;;;;;;;;;;4982927;28;20109;-57
2023/04/26 04:16:38;;;;;;;124.07;8.65;;;;;;;;;;4983152;28;20113;-57
2023/04/26 04:19:04;;;;;;;123.97;8.60;;;;;;;;;;4985783;28;20030;-57
2023/04/26 04:21:29;;;;;;;92.60;7.45;;;;;;;;;;4984115;28;20051;-60
2023/04/26 04:23:54;;;;;;;145.55;8.93;;;;;;;;;;4983324;28;20028;-60
2023/04/26 04:26:19;;;;;;;124.13;8.97;;;;;;;;;;4984892;28;20535;-59
2023/04/26 04:28:45;;;;;;;136.45;8.27;;;;;;;;;;4982116;28;20991;-59
2023/04/26 04:31:11;;;;;;;103.45;7.82;;;;;;;;;;4983774;28;20100;-60
2023/04/26 04:33:37;;;;;;;141.50;9.70;;;;;;;;;;4985316;28;20421;-56
2023/04/26 04:36:02;;;;;;;101.32;8.40;;;;;;;;;;4985091;28;20046;-59
2023/04/26 04:38:28;;;;;;;117.38;9.23;;;;;;;;;;4984320;28;20030;-58
2023/04/26 04:40:53;;;;;;;121.97;9.63;;;;;;;;;;4982274;28;20049;-60
2023/04/26 04:43:18;;;;;;;117.38;9.15;;;;;;;;;;4984492;28;20026;-58
2023/04/26 04:45:44;;;;;;;140.32;8.90;;;;;;;;;;4981951;28;20034;-60
2023/04/26 04:48:10;;;;;;;108.93;7.85;;;;;;;;;;4985378;28;20031;-60
2023/04/26 04:50:35;;;;;;;121.32;8.68;;;;;;;;;;4982973;28;20042;-60
2023/04/26 04:53:01;;;;;;;127.38;10.90;;;;;;;;;;4986009;28;20250;-60
2023/04/26 04:55:26;;;;;;;110.47;7.72;;;;;;;;;;4983906;28;20031;-59
2023/04/26 04:57:52;;;;;;;105.57;8.13;;;;;;;;;;4983542;28;20022;-59
2023/04/26 05:00:17;;;;;;;137.38;9.20;;;;;;;;;;4981838;28;20018;-60
2023/04/26 05:02:42;;;;;;;119.75;8.32;;;;;;;;;;4983654;28;20017;-61
2023/04/26 05:05:08;;;;;;;138.43;8.38;;;;;;;;;;4981826;28;20031;-59
2023/04/26 05:07:33;;;;;;;111.82;7.88;;;;;;;;;;4984455;28;20651;-60
2023/04/26 05:09:59;;;;;;;96.28;7.25;;;;;;;;;;4984899;28;20058;-58
2023/04/26 05:12:24;;;;;;;144.15;9.43;;;;;;;;;;4985029;28;20041;-57
2023/04/26 05:14:49;;;;;;;119.30;8.80;;;;;;;;;;4985039;28;20797;-59
2023/04/26 05:17:15;;;;;;;105.75;7.75;;;;;;;;;;4985089;28;20080;-58
2023/04/26 05:19:40;;;;;;;111.35;7.63;;;;;;;;;;4983168;28;20132;-59
2023/04/26 05:22:05;;;;;;;105.75;8.15;;;;;;;;;;4981584;28;20160;-58
2023/04/26 05:24:30;;;;;;;114.50;7.53;;;;;;;;;;4981465;28;20117;-57
2023/04/26 05:26:59;;;;;;;103.55;8.05;;;;;;;;;;4983653;28;20265;-61
2023/04/26 05:29:28;;;;;;;100.97;8.05;;;;;;;;;;4984326;28;20059;-60
2023/04/26 05:31:54;;;;;;;99.47;7.78;;;;;;;;;;4984331;28;20038;-60
2023/04/26 05:34:19;;;;;;;93.93;7.40;;;;;;;;;;4983022;28;20458;-59
2023/04/26 05:36:44;;;;;;;99.10;8.50;;;;;;;;;;4985102;28;20026;-62
2023/04/26 05:39:11;;;;;;;114.45;8.93;;;;;;;;;;4981410;28;20297;-59
2023/04/26 05:41:36;;;;;;;85.10;9.07;;;;;;;;;;4981477;28;20405;-60
2023/04/26 05:44:01;;;;;;;105.68;9.27;;;;;;;;;;4981760;28;20420;-60
2023/04/26 05:46:26;;;;;;;78.70;8.33;;;;;;;;;;4983247;28;20037;-59
2023/04/26 05:48:52;;;;;;;89.47;8.73;;;;;;;;;;4985220;28;20254;-61
2023/04/26 05:51:17;;;;;;;89.68;9.07;;;;;;;;;;4981769;28;20281;-60
2023/04/26 05:53:42;;;;;;;134.53;10.97;;;;;;;;;;4981538;28;20026;-59
2023/04/26 05:56:08;;;;;;;99.07;7.97;;;;;;;;;;4984529;28;20266;-59
2023/04/26 05:58:33;;;;;;;72.97;6.85;;;;;;;;;;4985151;28;20395;-60
2023/04/26 06:00:58;;;;;;;80.50;8.10;;;;;;;;;;4983587;28;20030;-63
2023/04/26 06:03:23;;;;;;;84.82;6.95;;;;;;;;;;4984559;28;20022;-62
2023/04/26 06:05:49;;;;;;;75.93;6.77;;;;;;;;;;4982889;28;20406;-62
2023/04/26 06:08:14;;;;;;;57.08;6.25;;;;;;;;;;4982706;28;20388;-61
2023/04/26 06:10:39;;;;;;;73.65;6.68;;;;;;;;;;4982897;28;20303;-61
2023/04/26 06:13:05;;;;;;;73.10;6.95;;;;;;;;;;4982381;28;20026;-59
2023/04/26 06:15:30;;;;;;;102.63;8.55;;;;;;;;;;4981945;28;20579;-59
2023/04/26 06:17:56;;;;;;;68.60;7.10;;;;;;;;;;4975449;28;20030;-59
2023/04/26 06:20:21;;;;;;;79.25;7.18;;;;;;;;;;4980468;28;20029;-59
2023/04/26 06:22:46;;;;;;;93.70;7.82;;;;;;;;;;4981182;28;20562;-59
2023/04/26 06:25:11;;;;;;;96.07;7.40;;;;;;;;;;4982237;28;20506;-61
2023/04/26 06:27:38;;;;;;;84.23;7.07;;;;;;;;;;4982148;28;20257;-63
2023/04/26 06:30:03;;;;;;;92.75;7.82;;;;;;;;;;4982640;28;20667;-62
2023/04/26 06:32:29;;;;;;;72.40;6.68;;;;;;;;;;4980830;28;20445;-63
2023/04/26 06:34:54;;;;;;;85.45;6.68;;;;;;;;;;4986629;28;20801;-63
2023/04/26 06:37:20;;;;;;;89.50;7.60;;;;;;;;;;4985037;28;20046;-62
2023/04/26 06:39:45;;;;;;;76.30;6.53;;;;;;;;;;4986043;28;20327;-63
2023/04/26 06:42:10;;;;;;;99.55;8.18;;;;;;;;;;4986347;28;20082;-62
2023/04/26 06:44:35;;;;;;;63.43;5.73;;;;;;;;;;4985195;28;20030;-61
2023/04/26 06:47:01;;;;;;;68.97;6.67;;;;;;;;;;4985165;28;20458;-62
2023/04/26 06:49:26;;;;;;;75.73;6.70;;;;;;;;;;4986541;28;20442;-64
2023/04/26 06:51:51;;;;;;;87.23;7.43;;;;;;;;;;4987312;28;20277;-64
2023/04/26 06:54:17;;;;;;;87.40;7.53;;;;;;;;;;4984051;28;20022;-64
2023/04/26 06:56:42;;;;;;;81.70;7.28;;;;;;;;;;4984083;28;20403;-64
2023/04/26 06:59:07;;;;;;;65.50;5.83;;;;;;;;;;4986241;28;20383;-57
2023/04/26 07:01:33;;;;;;;106.23;8.03;;;;;;;;;;4987120;28;20760;-60
2023/04/26 07:04:00;;;;;;;84.60;6.78;;;;;;;;;;4985272;28;20310;-62
2023/04/26 07:06:25;;;;;;;80.78;6.43;;;;;;;;;;4985535;28;20125;-60
2023/04/26 07:08:51;;;;;;;83.47;7.00;;;;;;;;;;4985393;28;20413;-62
2023/04/26 07:11:16;;;;;;;69.78;6.50;;;;;;;;;;4987151;28;20042;-62
2023/04/26 07:13:41;;;;;;;120.57;8.82;;;;;;;;;;4983613;28;20023;-59
2023/04/26 07:16:07;;;;;;;83.57;6.77;;;;;;;;;;4983874;28;20732;-61
2023/04/26 07:18:32;;;;;;;70.73;5.87;;;;;;;;;;4986204;28;20842;-61
2023/04/26 07:20:57;;;;;;;79.80;6.45;;;;;;;;;;4985707;28;20122;-59
2023/04/26 07:23:22;;;;;;;66.97;5.97;;;;;;;;;;4986376;28;20030;-61
2023/04/26 07:25:48;;;;;;;73.27;6.07;;;;;;;;;;4986063;28;20041;-62
2023/04/26 07:28:13;;;;;;;75.75;6.18;;;;;;;;;;4986229;28;20293;-59
2023/04/26 07:30:39;;;;;;;80.88;6.50;;;;;;;;;;4983682;28;20365;-59
2023/04/26 07:33:04;;;;;;;73.15;6.30;;;;;;;;;;4984443;28;20025;-59
2023/04/26 07:35:29;;;;;;;87.10;6.43;;;;;;;;;;4974696;28;20395;-59
2023/04/26 07:37:55;;;;;;;81.18;6.00;;;;;;;;;;4984883;28;20030;-63
2023/04/26 07:40:23;;;;;;;96.45;6.85;;;;;;;;;;4985306;28;20046;-59
2023/04/26 07:42:48;;;;;;;77.32;5.95;;;;;;;;;;4983975;28;20022;-60
2023/04/26 07:45:13;;;;;;;92.83;6.67;;;;;;;;;;4982809;28;20082;-57
2023/04/26 07:47:38;;;;;;;82.47;6.17;;;;;;;;;;4983026;28;20018;-61
2023/04/26 07:50:04;;;;;;;89.00;6.83;;;;;;;;;;4985585;28;20296;-61
2023/04/26 07:52:29;;;;;;;95.18;7.05;;;;;;;;;;4983773;28;20034;-58
2023/04/26 07:54:54;;;;;;;90.97;6.47;;;;;;;;;;4984468;28;20070;-59
2023/04/26 07:57:20;;;;;;;68.57;5.40;;;;;;;;;;4984038;28;20659;-59
2023/04/26 07:59:45;;;;;;;96.00;6.27;;;;;;;;;;4985064;28;20144;-59
2023/04/26 08:02:10;;;;;;;93.83;6.20;;;;;;;;;;4984271;28;20138;-58
2023/04/26 08:04:35;;;;;;;85.77;6.13;;;;;;;;;;4983113;28;20304;-58
2023/04/26 08:07:01;;;;;;;107.40;6.73;;;;;;;;;;4981850;28;20746;-58
2023/04/26 08:09:26;;;;;;;79.28;6.28;;;;;;;;;;4983567;28;20038;-61
2023/04/26 08:11:52;;;;;;;77.15;5.55;;;;;;;;;;4983431;28;20035;-58
2023/04/26 08:14:17;;;;;;;94.50;6.40;;;;;;;;;;4982844;28;20090;-61
2023/04/26 08:16:42;;;;;;;82.60;5.87;;;;;;;;;;4983851;28;20341;-60
2023/04/26 08:19:08;;;;;;;88.45;6.32;;;;;;;;;;4984402;28;20257;-59
2023/04/26 08:21:33;;;;;;;98.17;7.00;;;;;;;;;;4983965;28;20473;-60
2023/04/26 08:23:58;;;;;;;88.63;6.47;;;;;;;;;;4982370;28;20454;-61
2023/04/26 08:26:23;;;;;;;92.63;6.50;;;;;;;;;;4983398;28;20041;-61
2023/04/26 08:28:49;;;;;;;77.28;6.25;;;;;;;;;;4985293;28;20018;-60
2023/04/26 08:31:14;;;;;;;81.57;5.83;;;;;;;;;;4982728;28;20199;-61
2023/04/26 08:33:39;;;;;;;129.57;8.10;;;;;;;;;;4983018;28;21168;-57
2023/04/26 08:36:04;;;;;;;78.95;6.25;;;;;;;;;;4983724;28;20262;-58
2023/04/26 08:38:31;;;;;;;84.40;6.03;;;;;;;;;;4983813;28;20492;-59
2023/04/26 08:40:58;;;;;;;74.28;5.40;;;;;;;;;;4982065;28;20781;-62
2023/04/26 08:43:23;;;;;;;80.63;6.10;;;;;;;;;;4982634;28;20046;-61
2023/04/26 08:45:49;;;;;;;98.32;6.90;;;;;;;;;;4983176;28;20106;-62
2023/04/26 08:48:16;;;;;;;96.03;6.40;;;;;;;;;;4985311;28;20044;-60
2023/04/26 08:50:43;;;;;;;98.53;6.22;;;;;;;;;;4981570;28;20787;-60
2023/04/26 08:53:09;;;;;;;91.05;6.00;;;;;;;;;;4984243;28;20044;-62
2023/04/26 08:55:35;;;;;;;81.45;5.53;;;;;;;;;;4984117;28;20091;-60
2023/04/26 08:58:01;;;;;;;95.15;5.70;;;;;;;;;;4981931;28;20026;-61
2023/04/26 09:00:26;;;;;;;92.90;5.75;;;;;;;;;;4982818;28;20041;-58
2023/04/26 09:02:52;;;;;;;80.07;5.18;;;;;;;;;;4983341;28;20037;-61
2023/04/26 09:05:23;;;;;;;102.55;6.35;;;;;;;;;;4982504;28;20629;-59
2023/04/26 09:07:48;;;;;;;83.57;5.43;;;;;;;;;;4985496;28;20022;-60
2023/04/26 09:10:18;;;;;;;77.35;5.35;;;;;;;;;;4984673;28;20048;-62
2023/04/26 09:12:43;;;;;;;105.22;6.13;;;;;;;;;;4982407;28;20030;-59
2023/04/26 09:15:09;;;;;;;88.40;5.53;;;;;;;;;;4983309;28;20026;-59
2023/04/26 09:17:38;;;;;;;102.22;6.25;;;;;;;;;;4983830;28;20313;-60
2023/04/26 09:20:18;;;;;;;94.43;6.07;;;;;;;;;;4983870;28;20496;-62
2023/04/26 09:22:45;;;;;;;90.45;6.18;;;;;;;;;;4983714;28;20058;-61
2023/04/26 09:25:12;;;;;;;77.85;5.30;;;;;;;;;;4982949;28;20061;-60
2023/04/26 09:27:38;;;;;;;88.53;6.05;;;;;;;;;;4982806;28;20026;-58
2023/04/26 09:30:04;;;;;;;82.10;6.00;;;;;;;;;;4985604;28;20088;-60
2023/04/26 09:32:53;;;;;;;73.05;5.30;;;;;;;;;;4982834;28;20082;-61
2023/04/26 09:35:48;;;;;;;78.22;5.55;;;;;;;;;;5004629;28;20050;-60
2023/04/26 09:38:14;;;;;;;76.22;5.30;;;;;;;;;;4998353;28;20031;-61
2023/04/26 09:40:43;;;;;;;99.68;6.20;;;;;;;;;;4982686;28;20026;-62
2023/04/26 09:43:13;;;;;;;109.13;6.45;;;;;;;;;;4982752;28;20113;-59
2023/04/26 09:45:49;;;;;;;83.97;5.53;;;;;;;;;;4984624;28;20111;-62
2023/04/26 09:48:30;;;;;;;95.00;6.10;;;;;;;;;;5016589;28;20061;-61
2023/04/26 09:50:56;;;;;;;72.00;4.68;;;;;;;;;;4983275;28;20057;-62
2023/04/26 09:53:27;;;;;;;89.00;5.88;;;;;;;;;;4982436;28;20552;-60
2023/04/26 09:55:53;;;;;;;81.20;4.93;;;;;;;;;;4981478;28;20030;-61
2023/04/26 09:58:19;;;;;;;92.90;5.78;;;;;;;;;;4984163;28;20111;-57
2023/04/26 10:00:45;;;;;;;86.97;5.57;;;;;;;;;;4982141;28;20030;-58
2023/04/26 10:03:10;;;;;;;95.28;5.70;;;;;;;;;;4983005;28;20164;-57
2023/04/26 10:05:36;;;;;;;108.05;6.28;;;;;;;;;;4981493;28;20415;-58
2023/04/26 10:08:02;;;;;;;88.10;5.53;;;;;;;;;;4982760;28;20547;-62
2023/04/26 10:10:28;;;;;;;84.95;5.63;;;;;;;;;;4981949;28;20472;-61
2023/04/26 10:12:53;;;;;;;81.93;5.20;;;;;;;;;;4982446;28;20633;-60
2023/04/26 10:15:18;;;;;;;84.07;6.10;;;;;;;;;;4977287;28;20030;-58
2023/04/26 10:17:44;;;;;;;102.40;6.43;;;;;;;;;;4982833;28;20027;-58
2023/04/26 10:20:11;;;;;;;96.60;6.10;;;;;;;;;;4983070;28;20010;-60
2023/04/26 10:22:44;;;;;;;74.78;5.15;;;;;;;;;;4983072;28;20021;-63
2023/04/26 10:25:09;;;;;;;81.63;5.40;;;;;;;;;;4982021;28;20044;-58
2023/04/26 10:27:44;;;;;;;92.97;5.53;;;;;;;;;;4980721;28;20018;-64
2023/04/26 10:30:16;;;;;;;101.88;6.28;;;;;;;;;;4981632;28;20134;-62
2023/04/26 10:32:41;;;;;;;;;;;;;;;;;;4982596;28;20022;-61
2023/04/26 10:35:12;;;;;;;111.82;6.72;;;;;;;;;;4981701;28;19909;-61
2023/04/26 10:37:56;;;;;;;81.05;5.40;;;;;;;;;;4981535;28;20049;-61
2023/04/26 10:40:35;;;;;;;115.15;7.05;;;;;;;;;;5012798;28;20041;-61
2023/04/26 10:43:09;;;;;;;82.07;5.57;;;;;;;;;;4982020;28;20022;-61
2023/04/26 10:45:35;;;;;;;85.72;5.63;;;;;;;;;;4980950;28;20141;-59
2023/04/26 10:48:20;;;;;;;110.78;6.68;;;;;;;;;;4981976;28;20022;-58
2023/04/26 10:51:03;;;;;;;90.97;6.07;;;;;;;;;;4972316;28;20145;-58
2023/04/26 10:53:50;;;;;;;97.15;6.18;;;;;;;;;;4981256;28;20083;-59
2023/04/26 10:56:22;;;;;;;80.28;5.00;;;;;;;;;;5005224;28;20034;-59
2023/04/26 10:58:47;;;;;;;98.45;6.25;;;;;;;;;;4982301;28;20057;-59
2023/04/26 11:01:22;;;;;;;95.95;6.18;;;;;;;;;;5015365;28;20518;-61
2023/04/26 11:03:56;;;;;;;153.77;8.90;;;;;;;;;;4983342;28;20079;-61
2023/04/26 11:06:22;;;;;;;81.00;5.28;;;;;;;;;;4983815;28;20091;-59
2023/04/26 11:08:47;;;;;;;93.90;5.93;;;;;;;;;;4981164;28;20052;-59
2023/04/26 11:11:15;;;;;;;81.90;5.67;;;;;;;;;;4981983;28;20368;-58
2023/04/26 11:13:41;;;;;;;132.68;7.68;;;;;;;;;;4982300;28;20258;-59
2023/04/26 11:16:10;;;;;;;94.10;5.97;;;;;;;;;;4981165;28;20041;-60
2023/04/26 11:18:37;;;;;;;73.30;5.30;;;;;;;;;;4981443;28;20042;-60
2023/04/26 11:21:03;;;;;;;96.10;6.45;;;;;;;;;;4984345;28;20461;-58
2023/04/26 11:23:29;;;;;;;82.78;5.68;;;;;;;;;;4985366;28;20030;-60
2023/04/26 11:25:59;;;;;;;82.22;5.75;;;;;;;;;;4984176;28;20120;-62
2023/04/26 11:28:24;;;;;;;90.03;5.95;;;;;;;;;;4986500;28;20026;-61
2023/04/26 11:30:49;;;;;;;80.70;5.63;;;;;;;;;;4983671;28;20130;-62
2023/04/26 11:33:17;;;;;;;93.25;5.88;;;;;;;;;;4986533;28;20418;-59
2023/04/26 11:35:42;;;;;;;98.40;5.55;;;;;;;;;;4984035;28;20039;-60
2023/04/26 11:38:08;;;;;;;83.28;5.20;;;;;;;;;;4987568;28;20407;-62
2023/04/26 11:40:35;;;;;;;95.95;5.85;;;;;;;;;;4986343;28;20466;-61
2023/04/26 11:43:01;;;;;;;94.15;5.82;;;;;;;;;;4985843;28;20037;-59
2023/04/26 11:45:26;;;;;;;89.47;5.90;;;;;;;;;;4984264;28;20022;-61
2023/04/26 11:47:52;;;;;;;109.03;6.25;;;;;;;;;;4985691;28;20045;-59
2023/04/26 11:50:18;;;;;;;89.75;5.65;;;;;;;;;;4985412;28;20022;-61
2023/04/26 11:52:44;;;;;;;102.68;6.47;;;;;;;;;;4984426;28;20611;-62
2023/04/26 11:55:09;;;;;;;89.47;6.05;;;;;;;;;;4982380;28;20109;-61
2023/04/26 11:57:34;;;;;;;87.03;5.75;;;;;;;;;;4986173;28;20545;-61
2023/04/26 12:00:26;;;;;;;122.65;7.07;;;;;;;;;;4985442;28;20026;-60
2023/04/26 12:02:52;;;;;;;103.05;6.55;;;;;;;;;;4985970;28;20113;-61
2023/04/26 12:05:23;;;;;;;95.05;6.15;;;;;;;;;;4983937;28;20097;-61
2023/04/26 12:07:51;;;;;;;81.40;5.28;;;;;;;;;;4985459;28;20071;-61
2023/04/26 12:10:17;;;;;;;112.90;6.95;;;;;;;;;;4981873;28;20488;-58
2023/04/26 12:12:43;;;;;;;77.65;5.45;;;;;;;;;;4983707;28;20022;-62
2023/04/26 12:15:09;;;;;;;74.00;5.40;;;;;;;;;;4983172;28;20034;-60
2023/04/26 12:17:35;;;;;;;95.88;6.43;;;;;;;;;;4984522;28;20510;-58
2023/04/26 12:20:07;;;;;;;84.97;5.85;;;;;;;;;;4984619;28;20022;-61
2023/04/26 12:22:32;;;;;;;;;;;;;;;;;;4984873;28;20184;-58
2023/04/26 12:25:05;;;;;;;79.38;5.35;;;;;;;;;;4983560;28;19906;-60
2023/04/26 12:27:30;;;;;;;97.05;6.18;;;;;;;;;;4984010;28;20033;-61
2023/04/26 12:29:56;;;;;;;82.82;5.53;;;;;;;;;;4970740;28;20045;-60
2023/04/26 12:32:21;;;;;;;114.40;6.75;;;;;;;;;;4982437;28;20508;-63
2023/04/26 12:34:46;;;;;;;101.00;6.87;;;;;;;;;;4982173;28;20057;-57
2023/04/26 12:37:12;;;;;;;86.70;5.53;;;;;;;;;;4984370;28;20274;-58
2023/04/26 12:39:37;;;;;;;81.47;5.70;;;;;;;;;;4985248;28;20265;-58
2023/04/26 12:42:03;;;;;;;72.27;5.20;;;;;;;;;;4985948;28;20516;-59
2023/04/26 12:44:28;;;;;;;88.10;5.80;;;;;;;;;;4983545;28;20249;-63
2023/04/26 12:46:53;;;;;;;89.43;6.20;;;;;;;;;;4984921;28;20045;-61
2023/04/26 12:49:18;;;;;;;50.57;3.90;;;;;;;;;;4984822;28;20692;-62
2023/04/26 12:51:43;;;;;;;96.22;6.65;;;;;;;;;;4984305;28;20299;-61
2023/04/26 12:54:09;;;;;;;109.83;6.83;;;;;;;;;;4983356;28;20022;-62
2023/04/26 12:56:37;;;;;;;84.57;5.50;;;;;;;;;;4983300;28;20265;-62
2023/04/26 12:59:03;;;;;;;81.57;5.68;;;;;;;;;;4984360;28;20258;-60
2023/04/26 13:01:28;;;;;;;106.00;6.20;;;;;;;;;;4982187;28;20062;-59
2023/04/26 13:03:55;;;;;;;133.00;7.63;;;;;;;;;;4984727;28;20033;-59
2023/04/26 13:06:20;;;;;;;103.03;6.60;;;;;;;;;;4984274;28;20365;-60
2023/04/26 13:08:45;;;;;;;78.72;5.28;;;;;;;;;;4984164;28;20037;-60
2023/04/26 13:11:10;;;;;;;88.50;6.23;;;;;;;;;;4984586;28;20045;-59
2023/04/26 13:13:36;;;;;;;121.13;7.17;;;;;;;;;;4983653;28;20265;-58
2023/04/26 13:16:01;;;;;;;85.63;5.50;;;;;;;;;;4982321;28;20261;-61
2023/04/26 13:18:26;;;;;;;71.33;5.27;;;;;;;;;;4983945;28;20257;-58
2023/04/26 13:20:51;;;;;;;92.90;5.85;;;;;;;;;;4981924;28;20272;-59
2023/04/26 13:23:17;;;;;;;100.97;6.10;;;;;;;;;;4983843;28;20080;-58
2023/04/26 13:25:42;;;;;;;87.88;5.60;;;;;;;;;;4984194;28;20257;-62
2023/04/26 13:28:07;;;;;;;109.70;6.70;;;;;;;;;;4982885;28;20156;-57
2023/04/26 13:30:32;;;;;;;81.50;5.53;;;;;;;;;;4984082;28;20274;-59
2023/04/26 13:32:58;;;;;;;131.60;7.73;;;;;;;;;;4982045;28;20300;-59
2023/04/26 13:35:23;;;;;;;79.50;5.53;;;;;;;;;;4980827;28;20268;-60
2023/04/26 13:37:48;;;;;;;96.23;6.67;;;;;;;;;;4985194;28;20557;-61
2023/04/26 13:40:13;;;;;;;105.50;6.63;;;;;;;;;;4979975;28;20023;-57
2023/04/26 13:42:39;;;;;;;78.77;5.63;;;;;;;;;;4984186;28;20276;-57
2023/04/26 13:45:10;;;;;;;94.75;6.53;;;;;;;;;;4981942;28;20727;-59
2023/04/26 13:47:36;;;;;;;83.47;5.95;;;;;;;;;;4983186;28;20030;-60
2023/04/26 13:50:01;;;;;;;90.57;6.10;;;;;;;;;;4982728;28;20305;-61
2023/04/26 13:52:26;;;;;;;104.35;6.57;;;;;;;;;;4982362;28;20750;-58
2023/04/26 13:54:52;;;;;;;94.43;6.03;;;;;;;;;;4983467;28;20427;-60
2023/04/26 13:57:17;;;;;;;77.43;5.70;;;;;;;;;;4984614;28;20125;-60
2023/04/26 13:59:42;;;;;;;82.18;5.30;;;;;;;;;;4983048;28;20022;-59
2023/04/26 14:02:08;;;;;;;85.78;5.57;;;;;;;;;;4984396;28;20117;-57
2023/04/26 14:04:33;;;;;;;109.60;6.85;;;;;;;;;;4984574;28;20015;-59
2023/04/26 14:06:58;;;;;;;95.67;5.73;;;;;;;;;;4983204;28;20030;-59
2023/04/26 14:09:23;;;;;;;92.03;6.10;;;;;;;;;;4984288;28;20254;-60
2023/04/26 14:11:48;;;;;;;92.78;5.90;;;;;;;;;;4983117;28;20297;-59
2023/04/26 14:14:14;;;;;;;80.22;5.78;;;;;;;;;;4982660;28;20026;-62
2023/04/26 14:16:39;;;;;;;94.72;6.63;;;;;;;;;;4982958;28;20144;-61
2023/04/26 14:19:04;;;;;;;107.18;6.70;;;;;;;;;;4984152;28;20121;-61